createdAt,value
2023-01-17T00:01:19.527Z,1.92
2023-01-17T00:04:05.366Z,2.73
2023-01-17T00:06:51.285Z,5.65
2023-01-17T00:09:36.934Z,3.95
2023-01-17T00:12:05.515Z,4.47
2023-01-17T00:14:32.697Z,5.40
2023-01-17T00:17:02.721Z,7.37
2023-01-17T00:19:49.669Z,5.88
2023-01-17T00:22:40.888Z,5.03
2023-01-17T00:25:30.043Z,2.22
2023-01-17T00:27:57.573Z,2.50
2023-01-17T00:30:26.201Z,2.67
2023-01-17T00:32:53.454Z,1.45
2023-01-17T00:35:22.420Z,2.47
2023-01-17T00:37:49.885Z,1.35
2023-01-17T00:40:17.260Z,2.45
2023-01-17T00:42:44.354Z,2.30
2023-01-17T00:45:30.141Z,2.58
2023-01-17T00:48:15.919Z,1.33
2023-01-17T00:51:02.975Z,0.40
2023-01-17T00:53:48.776Z,1.08
2023-01-17T00:56:34.840Z,0.60
2023-01-17T00:59:20.509Z,0.90
2023-01-17T01:02:06.539Z,0.88
2023-01-17T01:04:52.253Z,1.10
2023-01-17T01:07:38.124Z,0.40
2023-01-17T01:10:24.378Z,0.60
2023-01-17T01:13:10.314Z,2.28
2023-01-17T01:15:56.120Z,1.48
2023-01-17T01:18:42.020Z,0.95
2023-01-17T01:21:28.210Z,0.75
2023-01-17T01:24:14.288Z,1.07
2023-01-17T01:27:00.229Z,1.45
2023-01-17T01:29:47.813Z,0.45
2023-01-17T01:32:34.037Z,0.55
2023-01-17T01:35:01.404Z,2.47
2023-01-17T01:37:28.597Z,2.97
2023-01-17T01:39:55.782Z,3.85
2023-01-17T01:42:22.946Z,0.73
2023-01-17T01:44:54.269Z,3.00
2023-01-17T01:47:31.625Z,3.20
2023-01-17T01:50:01.228Z,2.47
2023-01-17T01:52:31.429Z,1.13
2023-01-17T01:55:00.551Z,2.50
2023-01-17T01:57:31.389Z,0.70
2023-01-17T02:00:00.885Z,1.45
2023-01-17T02:02:29.286Z,2.40
2023-01-17T02:04:56.872Z,2.28
2023-01-17T02:07:45.688Z,3.47
2023-01-17T02:10:12.829Z,4.57
2023-01-17T02:12:40.401Z,4.95
2023-01-17T02:15:08.461Z,5.83
2023-01-17T02:17:43.561Z,5.07
2023-01-17T02:20:17.065Z,4.57
2023-01-17T02:22:55.231Z,2.75
2023-01-17T02:25:22.411Z,1.85
2023-01-17T02:28:03.689Z,3.17
2023-01-17T02:30:40.188Z,2.70
2023-01-17T02:33:13.565Z,3.88
2023-01-17T02:35:59.451Z,4.95
2023-01-17T02:38:32.940Z,2.88
2023-01-17T02:41:07.981Z,8.23
2023-01-17T02:43:36.507Z,1.40
2023-01-17T02:46:04.060Z,1.83
2023-01-17T02:48:32.731Z,8.32
2023-01-17T02:51:05.905Z,4.55
2023-01-17T02:53:52.075Z,2.30
2023-01-17T02:56:25.591Z,3.45
2023-01-17T02:58:52.922Z,2.88
2023-01-17T03:01:23.247Z,2.15
2023-01-17T03:03:54.061Z,6.80
2023-01-17T03:06:24.349Z,3.17
2023-01-17T03:08:52.661Z,1.15
2023-01-17T03:11:20.056Z,1.45
2023-01-17T03:13:47.394Z,2.97
2023-01-17T03:16:19.806Z,3.38
2023-01-17T03:18:47.140Z,3.70
2023-01-17T03:21:14.459Z,3.78
2023-01-17T03:23:41.669Z,2.72
2023-01-17T03:26:08.874Z,2.42
2023-01-17T03:28:36.275Z,7.38
2023-01-17T03:31:03.549Z,1.87
2023-01-17T03:33:30.950Z,6.63
2023-01-17T03:35:59.001Z,2.67
2023-01-17T03:38:30.566Z,5.50
2023-01-17T03:40:57.972Z,2.92
2023-01-17T03:43:25.114Z,5.20
2023-01-17T03:45:54.620Z,3.60
2023-01-17T03:48:22.389Z,4.63
2023-01-17T03:50:53.143Z,5.05
2023-01-17T03:53:20.335Z,3.08
2023-01-17T03:55:48.166Z,2.73
2023-01-17T03:58:17.278Z,2.72
2023-01-17T04:00:44.586Z,4.40
2023-01-17T04:03:11.829Z,3.63
2023-01-17T04:05:41.369Z,1.25
2023-01-17T04:08:08.649Z,5.00
2023-01-17T04:10:35.988Z,4.97
2023-01-17T04:13:04.213Z,2.67
2023-01-17T04:15:31.528Z,4.65
2023-01-17T04:17:59.083Z,1.25
2023-01-17T04:20:33.632Z,3.50
2023-01-17T04:23:01.102Z,2.80
2023-01-17T04:25:30.127Z,2.75
2023-01-17T04:27:57.877Z,5.47
2023-01-17T04:30:25.226Z,3.67
2023-01-17T04:32:52.393Z,2.17
2023-01-17T04:35:21.908Z,2.70
2023-01-17T04:37:49.421Z,1.20
2023-01-17T04:40:16.914Z,5.03
2023-01-17T04:42:47.466Z,1.80
2023-01-17T04:45:15.211Z,3.23
2023-01-17T04:47:42.360Z,2.38
2023-01-17T04:50:10.250Z,1.60
2023-01-17T04:52:37.506Z,4.68
2023-01-17T04:55:04.876Z,5.53
2023-01-17T04:57:32.110Z,2.23
2023-01-17T04:59:59.318Z,2.35
2023-01-17T05:02:26.522Z,3.33
2023-01-17T05:04:53.666Z,3.05
2023-01-17T05:07:21.019Z,3.08
2023-01-17T05:09:48.403Z,4.83
2023-01-17T05:12:15.530Z,4.10
2023-01-17T05:14:42.685Z,3.65
2023-01-17T05:17:11.323Z,4.78
2023-01-17T05:19:38.812Z,4.00
2023-01-17T05:22:15.083Z,5.23
2023-01-17T05:24:43.298Z,7.95
2023-01-17T05:27:11.019Z,4.00
2023-01-17T05:29:38.434Z,7.80
2023-01-17T05:32:05.899Z,6.00
2023-01-17T05:34:33.455Z,7.50
2023-01-17T05:37:00.587Z,4.07
2023-01-17T05:39:27.964Z,3.60
2023-01-17T05:41:55.258Z,4.30
2023-01-17T05:44:22.536Z,5.93
2023-01-17T05:46:49.676Z,7.03
2023-01-17T05:49:16.886Z,5.63
2023-01-17T05:51:44.173Z,5.15
2023-01-17T05:54:11.303Z,4.00
2023-01-17T05:56:38.566Z,8.98
2023-01-17T05:59:05.843Z,4.80
2023-01-17T06:01:33.052Z,8.10
2023-01-17T06:04:00.345Z,7.50
2023-01-17T06:06:27.548Z,6.97
2023-01-17T06:08:54.725Z,10.73
2023-01-17T06:11:21.870Z,5.37
2023-01-17T06:13:49.528Z,7.13
2023-01-17T06:16:16.764Z,6.40
2023-01-17T06:18:44.027Z,6.07
2023-01-17T06:21:11.199Z,10.23
2023-01-17T06:23:38.633Z,6.90
2023-01-17T06:26:07.165Z,7.75
2023-01-17T06:28:34.373Z,7.35
2023-01-17T06:31:05.986Z,6.60
2023-01-17T06:33:33.367Z,5.22
2023-01-17T06:36:00.660Z,6.47
2023-01-17T06:38:29.847Z,5.45
2023-01-17T06:41:00.398Z,7.03
2023-01-17T06:43:28.710Z,9.40
2023-01-17T06:45:56.193Z,5.70
2023-01-17T06:48:23.422Z,5.87
2023-01-17T06:50:50.804Z,4.97
2023-01-17T06:53:18.034Z,7.95
2023-01-17T06:55:45.453Z,5.47
2023-01-17T06:58:12.658Z,5.45
2023-01-17T07:00:41.076Z,4.70
2023-01-17T07:03:15.284Z,4.78
2023-01-17T07:05:42.617Z,3.97
2023-01-17T07:08:09.750Z,4.78
2023-01-17T07:10:37.005Z,6.57
2023-01-17T07:13:04.212Z,7.07
2023-01-17T07:15:31.584Z,7.97
2023-01-17T07:18:01.291Z,7.80
2023-01-17T07:20:28.608Z,6.55
2023-01-17T07:22:55.998Z,9.10
2023-01-17T07:25:23.250Z,13.37
2023-01-17T07:27:53.922Z,19.65
2023-01-17T07:30:21.687Z,11.70
2023-01-17T07:32:53.388Z,6.75
2023-01-17T07:35:21.224Z,8.10
2023-01-17T07:37:52.017Z,8.70
2023-01-17T07:40:21.646Z,8.23
2023-01-17T07:42:48.983Z,3.55
2023-01-17T07:45:17.043Z,4.95
2023-01-17T07:47:44.654Z,8.82
2023-01-17T07:50:13.607Z,7.83
2023-01-17T07:52:41.107Z,8.27
2023-01-17T07:55:08.742Z,6.10
2023-01-17T07:57:36.193Z,7.80
2023-01-17T08:00:06.573Z,11.40
2023-01-17T08:02:33.817Z,6.83
2023-01-17T08:05:01.269Z,8.88
2023-01-17T08:07:29.471Z,6.05
2023-01-17T08:09:56.720Z,4.70
2023-01-17T08:12:26.140Z,6.13
2023-01-17T08:14:53.468Z,5.83
2023-01-17T08:17:21.787Z,5.43
2023-01-17T08:19:53.163Z,7.82
2023-01-17T08:22:20.553Z,9.02
2023-01-17T08:24:48.743Z,4.15
2023-01-17T08:27:16.142Z,8.67
2023-01-17T08:29:47.242Z,7.65
2023-01-17T08:32:16.379Z,8.48
2023-01-17T08:34:43.661Z,5.22
2023-01-17T08:37:10.896Z,4.70
2023-01-17T08:39:38.205Z,6.10
2023-01-17T08:42:05.672Z,6.07
2023-01-17T08:44:32.835Z,5.55
2023-01-17T08:47:00.097Z,6.38
2023-01-17T08:49:28.223Z,10.05
2023-01-17T08:51:55.734Z,7.67
2023-01-17T08:54:23.067Z,12.05
2023-01-17T08:56:52.818Z,17.98
2023-01-17T08:59:20.045Z,5.57
2023-01-17T09:01:47.496Z,6.30
2023-01-17T09:04:15.419Z,8.13
2023-01-17T09:06:45.395Z,7.45
2023-01-17T09:09:13.755Z,10.05
2023-01-17T09:11:41.111Z,7.80
2023-01-17T09:14:08.604Z,5.80
2023-01-17T09:16:36.072Z,7.83
2023-01-17T09:19:03.296Z,8.73
2023-01-17T09:21:30.801Z,6.57
2023-01-17T09:23:58.124Z,6.03
2023-01-17T09:26:26.441Z,6.20
2023-01-17T09:28:53.981Z,7.27
2023-01-17T09:31:21.784Z,9.30
2023-01-17T09:33:49.425Z,6.15
2023-01-17T09:36:17.347Z,11.00
2023-01-17T09:38:45.013Z,7.82
2023-01-17T09:41:30.357Z,9.67
2023-01-17T09:44:02.705Z,9.68
2023-01-17T09:46:31.975Z,7.97
2023-01-17T09:49:08.664Z,11.60
2023-01-17T09:51:37.037Z,11.05
2023-01-17T09:54:05.641Z,10.47
2023-01-17T09:56:36.795Z,8.15
2023-01-17T09:59:19.559Z,9.80
2023-01-17T10:02:19.783Z,12.77
2023-01-17T10:05:03.060Z,11.80
2023-01-17T10:07:33.424Z,12.70
2023-01-17T10:10:09.563Z,13.43
2023-01-17T10:12:58.638Z,14.73
2023-01-17T10:15:33.172Z,13.20
2023-01-17T10:18:00.471Z,9.75
2023-01-17T10:20:44.872Z,12.70
2023-01-17T10:23:14.787Z,10.93
2023-01-17T10:25:48.517Z,15.65
2023-01-17T10:28:36.037Z,9.68
2023-01-17T10:31:08.950Z,10.15
2023-01-17T10:33:42.090Z,9.40
2023-01-17T10:36:15.435Z,12.07
2023-01-17T10:38:45.964Z,10.13
2023-01-17T10:41:27.174Z,10.82
2023-01-17T10:44:03.648Z,11.23
2023-01-17T10:46:40.676Z,13.17
2023-01-17T10:49:15.204Z,9.18
2023-01-17T10:52:06.212Z,11.20
2023-01-17T10:54:33.558Z,10.90
2023-01-17T10:57:00.773Z,10.98
2023-01-17T10:59:30.481Z,12.97
2023-01-17T11:01:58.201Z,9.43
2023-01-17T11:04:33.760Z,9.35
2023-01-17T11:07:12.334Z,10.00
2023-01-17T11:09:40.950Z,10.50
2023-01-17T11:12:16.571Z,12.17
2023-01-17T11:14:49.484Z,9.60
2023-01-17T11:17:19.990Z,9.23
2023-01-17T11:19:51.280Z,10.23
2023-01-17T11:22:18.978Z,8.88
2023-01-17T11:24:52.693Z,8.03
2023-01-17T11:27:27.756Z,10.00
2023-01-17T11:30:15.912Z,10.45
2023-01-17T11:32:55.187Z,13.60
2023-01-17T11:35:31.549Z,7.43
2023-01-17T11:38:15.597Z,10.57
2023-01-17T11:40:43.829Z,10.10
2023-01-17T11:43:15.847Z,12.05
2023-01-17T11:45:45.353Z,9.45
2023-01-17T11:48:16.393Z,8.45
2023-01-17T11:50:59.607Z,11.23
2023-01-17T11:53:31.863Z,7.80
2023-01-17T11:56:03.869Z,7.72
2023-01-17T11:58:32.130Z,6.30
2023-01-17T12:01:01.385Z,8.00
2023-01-17T12:03:34.807Z,7.73
2023-01-17T12:06:11.987Z,6.03
2023-01-17T12:08:51.485Z,8.75
2023-01-17T12:12:14.565Z,5.57
2023-01-17T12:14:52.510Z,5.68
2023-01-17T12:17:34.038Z,6.77
2023-01-17T12:20:05.595Z,6.13
2023-01-17T12:22:42.381Z,4.70
2023-01-17T12:25:12.963Z,8.00
2023-01-17T12:27:49.252Z,6.03
2023-01-17T12:30:39.602Z,8.57
2023-01-17T12:33:12.915Z,4.85
2023-01-17T12:35:46.028Z,11.88
2023-01-17T12:38:31.697Z,4.93
2023-01-17T12:41:07.991Z,3.78
2023-01-17T12:43:38.201Z,4.43
2023-01-17T12:46:08.660Z,3.40
2023-01-17T12:48:39.402Z,4.45
2023-01-17T12:51:09.521Z,4.03
2023-01-17T12:53:47.769Z,5.30
2023-01-17T12:56:31.521Z,6.33
2023-01-17T12:59:13.021Z,3.65
2023-01-17T13:01:43.264Z,6.53
2023-01-17T13:04:16.840Z,4.10
2023-01-17T13:06:52.624Z,5.90
2023-01-17T13:09:21.545Z,5.23
2023-01-17T13:11:57.943Z,7.07
2023-01-17T13:14:25.701Z,3.95
2023-01-17T13:16:58.006Z,4.70
2023-01-17T13:19:37.611Z,6.85
2023-01-17T13:22:09.962Z,7.87
2023-01-17T13:24:42.585Z,4.88
2023-01-17T13:27:27.994Z,5.43
2023-01-17T13:30:04.269Z,6.50
2023-01-17T13:32:50.335Z,5.63
2023-01-17T13:35:42.135Z,4.40
2023-01-17T13:38:15.668Z,6.30
2023-01-17T13:40:55.071Z,7.20
2023-01-17T13:43:28.341Z,7.25
2023-01-17T13:46:00.024Z,6.20
2023-01-17T13:48:28.679Z,4.30
2023-01-17T13:50:57.116Z,6.22
2023-01-17T13:53:39.593Z,4.95
2023-01-17T13:56:06.904Z,3.83
2023-01-17T13:58:48.859Z,2.92
2023-01-17T14:01:16.833Z,3.90
2023-01-17T14:03:48.228Z,3.13
2023-01-17T14:06:30.755Z,4.18
2023-01-17T14:09:02.631Z,5.85
2023-01-17T14:11:32.756Z,7.05
2023-01-17T14:14:19.997Z,6.17
2023-01-17T14:16:47.372Z,5.97
2023-01-17T14:19:27.215Z,5.95
2023-01-17T14:22:14.556Z,4.97
2023-01-17T14:25:00.383Z,6.72
2023-01-17T14:27:28.549Z,4.03
2023-01-17T14:29:59.527Z,4.70
2023-01-17T14:32:31.716Z,3.65
2023-01-17T14:35:00.393Z,3.50
2023-01-17T14:37:27.724Z,2.88
2023-01-17T14:39:56.741Z,3.30
2023-01-17T14:42:25.656Z,5.32
2023-01-17T14:45:04.942Z,3.55
2023-01-17T14:47:33.274Z,4.10
2023-01-17T14:50:14.299Z,4.70
2023-01-17T14:52:41.634Z,3.20
2023-01-17T14:55:15.959Z,3.08
2023-01-17T14:57:43.710Z,3.25
2023-01-17T15:00:11.093Z,5.13
2023-01-17T15:02:43.429Z,4.30
2023-01-17T15:05:15.753Z,3.13
2023-01-17T15:07:44.519Z,4.13
2023-01-17T15:10:13.072Z,4.60
2023-01-17T15:12:41.069Z,3.60
2023-01-17T15:15:26.660Z,4.75
2023-01-17T15:18:08.021Z,4.63
2023-01-17T15:20:35.652Z,4.10
2023-01-17T15:23:03.374Z,4.32
2023-01-17T15:25:31.270Z,15.05
2023-01-17T15:27:58.602Z,11.60
2023-01-17T15:30:26.017Z,4.67
2023-01-17T15:32:53.407Z,5.55
2023-01-17T15:35:21.562Z,4.47
2023-01-17T15:37:52.832Z,4.82
2023-01-17T15:40:24.239Z,4.00
2023-01-17T15:42:54.116Z,3.90
2023-01-17T15:45:23.979Z,5.45
2023-01-17T15:47:51.325Z,4.57
2023-01-17T15:50:28.466Z,5.97
2023-01-17T15:52:57.588Z,4.22
2023-01-17T15:55:28.773Z,3.47
2023-01-17T15:57:56.283Z,5.05
2023-01-17T16:00:26.394Z,6.45
2023-01-17T16:02:58.036Z,5.22
2023-01-17T16:05:27.491Z,5.75
2023-01-17T16:07:56.188Z,4.30
2023-01-17T16:10:24.997Z,3.97
2023-01-17T16:12:53.909Z,4.18
2023-01-17T16:15:23.809Z,6.40
2023-01-17T16:17:52.535Z,4.35
2023-01-17T16:20:23.101Z,5.33
2023-01-17T16:22:51.132Z,7.72
2023-01-17T16:25:20.570Z,5.38
2023-01-17T16:27:48.727Z,4.70
2023-01-17T16:30:17.926Z,5.30
2023-01-17T16:32:48.881Z,6.07
2023-01-17T16:35:21.032Z,6.85
2023-01-17T16:37:53.170Z,6.07
2023-01-17T16:40:21.485Z,5.88
2023-01-17T16:42:48.887Z,6.55
2023-01-17T16:45:16.543Z,9.87
2023-01-17T16:47:44.463Z,7.88
2023-01-17T16:50:12.803Z,8.45
2023-01-17T16:52:40.730Z,12.35
2023-01-17T16:55:09.458Z,10.15
2023-01-17T16:57:36.877Z,9.37
2023-01-17T17:00:04.676Z,9.43
2023-01-17T17:02:32.062Z,8.43
2023-01-17T17:04:59.413Z,7.47
2023-01-17T17:07:26.570Z,8.35
2023-01-17T17:09:53.847Z,7.37
2023-01-17T17:12:21.028Z,7.40
2023-01-17T17:14:48.345Z,8.43
2023-01-17T17:17:15.618Z,6.30
2023-01-17T17:19:42.895Z,10.07
2023-01-17T17:22:10.258Z,6.93
2023-01-17T17:24:37.557Z,7.40
2023-01-17T17:27:04.867Z,8.77
2023-01-17T17:29:33.507Z,8.77
2023-01-17T17:32:00.664Z,10.63
2023-01-17T17:34:29.410Z,10.47
2023-01-17T17:36:56.769Z,7.97
2023-01-17T17:39:24.009Z,9.05
2023-01-17T17:41:51.237Z,8.93
2023-01-17T17:44:18.952Z,9.52
2023-01-17T17:46:49.413Z,7.43
2023-01-17T17:49:17.379Z,8.43
2023-01-17T17:51:45.042Z,9.20
2023-01-17T17:54:15.013Z,8.15
2023-01-17T17:56:46.489Z,8.07
2023-01-17T17:59:18.290Z,9.27
2023-01-17T18:01:46.206Z,10.20
2023-01-17T18:04:14.391Z,15.10
2023-01-17T18:06:42.184Z,15.57
2023-01-17T18:09:10.089Z,30.42
2023-01-17T18:11:38.155Z,15.70
2023-01-17T18:14:06.236Z,12.30
2023-01-17T18:16:41.508Z,8.55
2023-01-17T18:19:09.953Z,6.35
2023-01-17T18:21:38.043Z,9.15
2023-01-17T18:24:06.852Z,12.90
2023-01-17T18:26:41.821Z,10.52
2023-01-17T18:29:15.824Z,9.30
2023-01-17T18:31:44.326Z,7.78
2023-01-17T18:34:13.244Z,6.70
2023-01-17T18:36:40.851Z,8.23
2023-01-17T18:39:16.076Z,6.72
2023-01-17T18:41:43.539Z,7.45
2023-01-17T18:44:11.279Z,9.02
2023-01-17T18:46:40.345Z,7.78
2023-01-17T18:49:08.819Z,8.00
2023-01-17T18:51:36.207Z,9.43
2023-01-17T18:54:06.950Z,8.57
2023-01-17T18:56:34.950Z,8.93
2023-01-17T18:59:03.518Z,8.25
2023-01-17T19:01:35.321Z,9.47
2023-01-17T19:04:04.140Z,9.05
2023-01-17T19:06:36.181Z,10.20
2023-01-17T19:09:04.015Z,9.50
2023-01-17T19:11:31.568Z,18.20
2023-01-17T19:13:58.797Z,22.60
2023-01-17T19:16:30.708Z,28.27
2023-01-17T19:18:58.948Z,24.40
2023-01-17T19:21:27.623Z,15.75
2023-01-17T19:23:55.760Z,18.45
2023-01-17T19:26:26.533Z,11.97
2023-01-17T19:28:54.621Z,10.93
2023-01-17T19:31:23.262Z,11.00
2023-01-17T19:33:52.120Z,10.88
2023-01-17T19:36:20.643Z,10.23
2023-01-17T19:39:03.073Z,11.00
2023-01-17T19:41:31.537Z,9.25
2023-01-17T19:44:07.138Z,9.95
2023-01-17T19:46:35.214Z,9.68
2023-01-17T19:49:02.988Z,7.65
2023-01-17T19:51:30.552Z,9.97
2023-01-17T19:54:01.947Z,9.93
2023-01-17T19:56:29.770Z,11.48
2023-01-17T19:59:03.328Z,10.88
2023-01-17T20:01:32.519Z,9.05
2023-01-17T20:04:00.272Z,11.60
2023-01-17T20:06:29.265Z,9.25
2023-01-17T20:08:56.650Z,11.80
2023-01-17T20:11:25.063Z,12.02
2023-01-17T20:13:56.117Z,11.25
2023-01-17T20:16:24.508Z,9.97
2023-01-17T20:18:51.834Z,11.93
2023-01-17T20:21:20.654Z,11.38
2023-01-17T20:23:48.532Z,13.35
2023-01-17T20:26:17.301Z,12.00
2023-01-17T20:28:45.631Z,13.60
2023-01-17T20:31:17.501Z,12.25
2023-01-17T20:33:45.749Z,13.23
2023-01-17T20:36:15.062Z,13.15
2023-01-17T20:38:46.016Z,12.60
2023-01-17T20:41:32.983Z,15.93
2023-01-17T20:44:01.470Z,13.40
2023-01-17T20:46:31.236Z,10.80
2023-01-17T20:49:01.228Z,10.95
2023-01-17T20:51:29.888Z,12.57
2023-01-17T20:54:02.818Z,10.53
2023-01-17T20:56:34.449Z,13.05
2023-01-17T20:59:06.307Z,8.85
2023-01-17T21:01:34.637Z,13.32
2023-01-17T21:04:02.353Z,12.32
2023-01-17T21:06:29.705Z,12.27
2023-01-17T21:08:57.138Z,14.60
2023-01-17T21:11:27.669Z,10.38
2023-01-17T21:13:55.039Z,11.68
2023-01-17T21:16:28.210Z,13.07
2023-01-17T21:18:55.607Z,11.13
2023-01-17T21:21:25.007Z,10.93
2023-01-17T21:23:53.421Z,13.23
2023-01-17T21:26:21.344Z,11.52
2023-01-17T21:28:52.310Z,13.82
2023-01-17T21:31:24.597Z,14.30
2023-01-17T21:33:53.367Z,10.85
2023-01-17T21:36:21.804Z,10.52
2023-01-17T21:38:53.403Z,11.90
2023-01-17T21:41:21.390Z,13.23
2023-01-17T21:43:48.808Z,13.43
2023-01-17T21:46:16.450Z,10.98
2023-01-17T21:48:44.505Z,11.23
2023-01-17T21:51:11.875Z,13.85
2023-01-17T21:53:40.138Z,13.80
2023-01-17T21:56:27.269Z,11.80
2023-01-17T21:58:57.119Z,13.50
2023-01-17T22:01:25.925Z,12.23
2023-01-17T22:03:57.653Z,12.50
2023-01-17T22:06:29.368Z,14.93
2023-01-17T22:08:56.678Z,11.33
2023-01-17T22:11:25.513Z,12.63
2023-01-17T22:13:52.892Z,16.42
2023-01-17T22:16:21.559Z,13.50
2023-01-17T22:18:48.967Z,14.68
2023-01-17T22:21:17.536Z,16.50
2023-01-17T22:23:49.049Z,13.75
2023-01-17T22:26:16.655Z,16.55
2023-01-17T22:28:44.400Z,12.23
2023-01-17T22:31:22.910Z,13.65
2023-01-17T22:33:57.256Z,13.07
2023-01-17T22:36:24.905Z,14.60
2023-01-17T22:38:52.263Z,13.23
2023-01-17T22:41:20.766Z,13.85
2023-01-17T22:43:50.738Z,12.90
2023-01-17T22:46:19.433Z,11.87
2023-01-17T22:48:46.903Z,11.45
2023-01-17T22:51:15.214Z,9.75
2023-01-17T22:53:50.165Z,13.38
2023-01-17T22:56:19.783Z,12.48
2023-01-17T22:58:48.801Z,10.97
2023-01-17T23:01:20.771Z,11.48
2023-01-17T23:03:54.741Z,11.20
2023-01-17T23:06:23.452Z,10.85
2023-01-17T23:08:52.244Z,13.13
2023-01-17T23:11:47.350Z,11.43
2023-01-17T23:14:17.634Z,13.95
2023-01-17T23:17:05.116Z,11.88
2023-01-17T23:19:36.809Z,11.00
2023-01-17T23:22:19.147Z,13.45
2023-01-17T23:24:49.803Z,14.87
2023-01-17T23:27:35.571Z,12.35
2023-01-17T23:30:04.725Z,11.85
2023-01-17T23:32:31.917Z,14.10
2023-01-17T23:35:00.397Z,12.90
2023-01-17T23:37:48.179Z,11.93
2023-01-17T23:40:15.768Z,11.75
2023-01-17T23:43:01.619Z,12.77
2023-01-17T23:45:29.251Z,10.95
2023-01-17T23:47:56.679Z,12.65
2023-01-17T23:50:24.087Z,10.97
2023-01-17T23:52:51.408Z,14.65
2023-01-17T23:55:18.579Z,12.18
2023-01-17T23:57:46.050Z,12.18
